createdAt,value
2023-09-27T00:01:03.962Z,11.93
2023-09-27T00:03:32.199Z,11.07
2023-09-27T00:06:00.698Z,11.32
2023-09-27T00:08:29.139Z,12.13
2023-09-27T00:10:58.424Z,11.45
2023-09-27T00:13:26.725Z,10.77
2023-09-27T00:15:56.128Z,11.52
2023-09-27T00:18:24.493Z,13.00
2023-09-27T00:20:53.276Z,11.65
2023-09-27T00:23:21.501Z,12.32
2023-09-27T00:25:49.928Z,12.52
2023-09-27T00:28:18.247Z,13.43
2023-09-27T00:30:46.331Z,13.32
2023-09-27T00:33:17.210Z,11.85
2023-09-27T00:35:49.811Z,12.15
2023-09-27T00:38:18.364Z,12.18
2023-09-27T00:40:47.650Z,11.57
2023-09-27T00:43:29.181Z,12.05
2023-09-27T00:45:59.883Z,11.15
2023-09-27T00:48:29.854Z,12.02
2023-09-27T00:50:58.073Z,12.00
2023-09-27T00:53:29.119Z,11.50
2023-09-27T00:55:58.126Z,10.77
2023-09-27T00:58:26.678Z,12.45
2023-09-27T01:00:54.940Z,11.80
2023-09-27T01:03:23.080Z,11.48
2023-09-27T01:05:52.945Z,12.05
2023-09-27T01:08:21.270Z,11.52
2023-09-27T01:10:49.878Z,11.45
2023-09-27T01:13:18.855Z,13.15
2023-09-27T01:15:47.143Z,12.75
2023-09-27T01:18:15.384Z,12.75
2023-09-27T01:20:43.570Z,14.45
2023-09-27T01:23:13.177Z,12.23
2023-09-27T01:25:41.753Z,13.20
2023-09-27T01:28:11.545Z,12.38
2023-09-27T01:30:40.875Z,13.73
2023-09-27T01:33:12.945Z,12.07
2023-09-27T01:35:42.706Z,13.48
2023-09-27T01:38:14.928Z,13.90
2023-09-27T01:40:44.685Z,11.95
2023-09-27T01:43:14.498Z,12.60
2023-09-27T01:45:43.976Z,12.20
2023-09-27T01:48:12.369Z,12.07
2023-09-27T01:50:41.199Z,11.50
2023-09-27T01:53:09.782Z,11.07
2023-09-27T01:55:39.339Z,12.50
2023-09-27T01:58:07.897Z,12.40
2023-09-27T02:00:37.292Z,13.52
2023-09-27T02:03:06.233Z,13.98
2023-09-27T02:05:34.455Z,13.77
2023-09-27T02:08:03.058Z,13.50
2023-09-27T02:10:31.379Z,12.30
2023-09-27T02:13:01.808Z,14.45
2023-09-27T02:15:30.085Z,13.27
2023-09-27T02:17:58.462Z,12.70
2023-09-27T02:20:27.246Z,13.57
2023-09-27T02:22:56.934Z,15.23
2023-09-27T02:25:26.746Z,13.98
2023-09-27T02:27:55.185Z,13.05
2023-09-27T02:30:24.741Z,13.60
2023-09-27T02:32:54.047Z,13.07
2023-09-27T02:35:22.932Z,14.02
2023-09-27T02:37:51.187Z,12.35
2023-09-27T02:40:19.719Z,12.65
2023-09-27T02:42:49.564Z,12.60
2023-09-27T02:45:18.118Z,11.40
2023-09-27T02:47:48.789Z,13.70
2023-09-27T02:50:17.329Z,16.25
2023-09-27T02:52:46.012Z,13.10
2023-09-27T02:55:15.428Z,13.40
2023-09-27T02:57:44.269Z,16.63
2023-09-27T03:00:13.322Z,12.68
2023-09-27T03:02:43.111Z,14.25
2023-09-27T03:05:13.137Z,15.10
2023-09-27T03:07:41.223Z,15.30
2023-09-27T03:10:12.558Z,13.70
2023-09-27T03:12:41.906Z,14.55
2023-09-27T03:15:13.702Z,13.55
2023-09-27T03:17:43.936Z,14.85
2023-09-27T03:20:18.211Z,12.55
2023-09-27T03:22:47.571Z,13.13
2023-09-27T03:25:18.169Z,12.73
2023-09-27T03:27:47.392Z,12.50
2023-09-27T03:30:16.178Z,11.90
2023-09-27T03:32:45.098Z,13.15
2023-09-27T03:35:15.266Z,13.50
2023-09-27T03:37:45.590Z,12.32
2023-09-27T03:40:15.740Z,14.63
2023-09-27T03:42:46.041Z,14.02
2023-09-27T03:45:15.720Z,14.77
2023-09-27T03:47:46.009Z,14.55
2023-09-27T03:50:19.544Z,14.10
2023-09-27T03:52:47.886Z,14.02
2023-09-27T03:55:16.126Z,15.68
2023-09-27T03:57:44.886Z,14.02
2023-09-27T04:00:15.311Z,13.93
2023-09-27T04:02:45.636Z,13.10
2023-09-27T04:05:15.612Z,12.32
2023-09-27T04:07:45.157Z,13.75
2023-09-27T04:10:13.273Z,14.13
2023-09-27T04:12:41.581Z,12.63
2023-09-27T04:15:11.068Z,14.45
2023-09-27T04:17:40.370Z,14.25
2023-09-27T04:20:18.615Z,14.48
2023-09-27T04:22:49.918Z,14.05
2023-09-27T04:25:19.634Z,15.00
2023-09-27T04:27:51.252Z,16.00
2023-09-27T04:30:21.482Z,16.50
2023-09-27T04:32:52.165Z,17.00
2023-09-27T04:35:21.299Z,16.98
2023-09-27T04:37:51.301Z,18.20
2023-09-27T04:40:19.812Z,17.58
2023-09-27T04:42:48.716Z,15.23
2023-09-27T04:45:17.247Z,15.57
2023-09-27T04:47:46.452Z,18.73
2023-09-27T04:50:16.704Z,18.85
2023-09-27T04:52:45.291Z,16.98
2023-09-27T04:55:16.153Z,15.68
2023-09-27T04:57:44.446Z,15.60
2023-09-27T05:00:20.209Z,15.95
2023-09-27T05:02:49.515Z,16.73
2023-09-27T05:05:18.029Z,17.40
2023-09-27T05:07:46.342Z,17.50
2023-09-27T05:10:16.275Z,19.30
2023-09-27T05:12:44.479Z,17.40
2023-09-27T05:15:12.909Z,19.67
2023-09-27T05:17:41.132Z,17.73
2023-09-27T05:20:12.135Z,16.67
2023-09-27T05:22:41.211Z,17.95
2023-09-27T05:25:09.962Z,16.40
2023-09-27T05:27:39.834Z,17.73
2023-09-27T05:30:10.062Z,16.80
2023-09-27T05:32:38.455Z,16.20
2023-09-27T05:35:07.709Z,17.48
2023-09-27T05:37:35.914Z,17.35
2023-09-27T05:40:05.768Z,16.70
2023-09-27T05:42:34.445Z,19.05
2023-09-27T05:45:05.442Z,18.45
2023-09-27T05:47:35.381Z,17.42
2023-09-27T05:50:05.225Z,16.73
2023-09-27T05:52:34.497Z,17.83
2023-09-27T05:55:02.718Z,16.63
2023-09-27T05:57:30.888Z,18.27
2023-09-27T05:59:59.895Z,18.23
2023-09-27T06:02:32.653Z,20.65
2023-09-27T06:05:01.897Z,19.63
2023-09-27T06:07:30.108Z,21.05
2023-09-27T06:09:58.337Z,22.63
2023-09-27T06:12:26.517Z,26.65
2023-09-27T06:14:54.672Z,28.55
2023-09-27T06:17:22.990Z,26.90
2023-09-27T06:19:52.488Z,22.67
2023-09-27T06:22:24.078Z,23.10
2023-09-27T06:24:52.926Z,21.25
2023-09-27T06:27:21.195Z,22.40
2023-09-27T06:29:49.455Z,21.15
2023-09-27T06:32:17.603Z,21.67
2023-09-27T06:34:49.872Z,20.90
2023-09-27T06:37:19.932Z,19.92
2023-09-27T06:39:48.278Z,19.27
2023-09-27T06:42:17.086Z,18.00
2023-09-27T06:44:45.295Z,19.90
2023-09-27T06:47:14.231Z,17.63
2023-09-27T06:49:42.627Z,19.73
2023-09-27T06:52:10.726Z,16.88
2023-09-27T06:54:40.308Z,17.08
2023-09-27T06:57:08.482Z,15.38
2023-09-27T06:59:37.555Z,13.40
2023-09-27T07:02:06.468Z,14.07
2023-09-27T07:04:34.632Z,13.65
2023-09-27T07:07:03.666Z,12.23
2023-09-27T07:09:32.405Z,11.65
2023-09-27T07:12:02.013Z,11.07
2023-09-27T07:14:30.269Z,11.55
2023-09-27T07:17:01.578Z,11.18
2023-09-27T07:19:32.805Z,10.20
2023-09-27T07:22:04.497Z,9.65
2023-09-27T07:24:34.272Z,10.52
2023-09-27T07:27:03.736Z,10.30
2023-09-27T07:29:32.023Z,10.07
2023-09-27T07:32:00.123Z,9.65
2023-09-27T07:34:28.739Z,9.95
2023-09-27T07:36:56.811Z,10.23
2023-09-27T07:39:25.422Z,9.52
2023-09-27T07:41:54.068Z,8.88
2023-09-27T07:44:23.618Z,10.15
2023-09-27T07:46:52.629Z,9.40
2023-09-27T07:49:20.778Z,8.80
2023-09-27T07:51:48.953Z,8.93
2023-09-27T07:54:17.636Z,9.65
2023-09-27T07:56:47.091Z,9.00
2023-09-27T07:59:15.268Z,9.02
2023-09-27T08:01:45.776Z,9.38
2023-09-27T08:04:16.407Z,8.07
2023-09-27T08:06:46.625Z,9.05
2023-09-27T08:09:27.780Z,9.25
2023-09-27T08:12:04.563Z,10.63
2023-09-27T08:14:32.725Z,9.00
2023-09-27T08:17:04.209Z,8.90
2023-09-27T08:19:33.183Z,9.45
2023-09-27T08:22:01.257Z,9.13
2023-09-27T08:24:29.436Z,9.13
2023-09-27T08:26:57.741Z,8.93
2023-09-27T08:29:27.179Z,10.15
2023-09-27T08:31:55.305Z,8.87
2023-09-27T08:34:25.058Z,8.73
2023-09-27T08:36:53.648Z,9.00
2023-09-27T08:39:21.963Z,9.07
2023-09-27T08:41:50.284Z,9.57
2023-09-27T08:44:18.727Z,8.50
2023-09-27T08:46:47.511Z,9.10
2023-09-27T08:49:18.003Z,7.90
2023-09-27T08:51:48.557Z,8.07
2023-09-27T08:54:18.762Z,8.80
2023-09-27T08:56:51.165Z,9.60
2023-09-27T08:59:20.643Z,8.37
2023-09-27T09:01:50.097Z,9.13
2023-09-27T09:04:18.531Z,8.13
2023-09-27T09:06:48.890Z,8.30
2023-09-27T09:09:17.020Z,8.23
2023-09-27T09:11:48.919Z,8.03
2023-09-27T09:14:19.755Z,8.47
2023-09-27T09:16:53.357Z,8.23
2023-09-27T09:19:42.864Z,8.40
2023-09-27T09:22:15.695Z,8.30
2023-09-27T09:24:45.089Z,8.43
2023-09-27T09:27:17.671Z,7.33
2023-09-27T09:29:46.973Z,8.53
2023-09-27T09:32:17.171Z,7.60
2023-09-27T09:34:46.228Z,7.43
2023-09-27T09:37:19.759Z,8.23
2023-09-27T09:39:49.547Z,7.67
2023-09-27T09:42:31.966Z,7.57
2023-09-27T09:45:08.207Z,8.27
2023-09-27T09:47:37.500Z,7.97
2023-09-27T09:50:13.250Z,8.37
2023-09-27T09:52:43.727Z,6.77
2023-09-27T09:57:52.825Z,6.83
2023-09-27T10:00:27.277Z,7.73
2023-09-27T10:03:01.854Z,6.93
2023-09-27T10:05:39.518Z,7.23
2023-09-27T10:08:09.621Z,6.30
2023-09-27T10:10:38.556Z,7.07
2023-09-27T10:13:09.690Z,7.10
2023-09-27T10:15:38.392Z,7.83
2023-09-27T10:18:34.830Z,7.33
2023-09-27T10:21:04.168Z,6.80
2023-09-27T10:23:37.337Z,7.40
2023-09-27T10:26:23.545Z,7.17
2023-09-27T10:29:19.693Z,7.37
2023-09-27T10:32:24.955Z,6.93
2023-09-27T10:34:57.864Z,6.73
2023-09-27T10:38:00.714Z,7.30
2023-09-27T10:40:43.552Z,7.00
2023-09-27T10:43:12.375Z,7.07
2023-09-27T10:45:40.614Z,7.00
2023-09-27T10:48:16.824Z,6.40
2023-09-27T10:50:52.970Z,7.50
2023-09-27T10:53:21.564Z,7.80
2023-09-27T10:55:51.236Z,6.50
2023-09-27T10:58:19.549Z,6.43
2023-09-27T11:00:57.542Z,8.00
2023-09-27T11:03:27.037Z,6.90
2023-09-27T11:05:55.251Z,7.30
2023-09-27T11:08:24.797Z,6.57
2023-09-27T11:10:57.935Z,6.67
2023-09-27T11:13:26.975Z,6.63
2023-09-27T11:15:55.331Z,6.30
2023-09-27T11:18:23.610Z,7.17
2023-09-27T11:20:52.045Z,6.27
2023-09-27T11:23:22.081Z,5.57
2023-09-27T11:25:50.648Z,5.90
2023-09-27T11:28:21.365Z,6.00
2023-09-27T11:30:58.933Z,5.27
2023-09-27T11:33:33.948Z,5.60
2023-09-27T11:36:06.246Z,6.00
2023-09-27T11:38:34.607Z,5.70
2023-09-27T11:41:07.016Z,5.55
2023-09-27T11:43:36.540Z,5.30
2023-09-27T11:46:05.901Z,5.85
2023-09-27T11:48:36.234Z,6.10
2023-09-27T11:51:05.822Z,6.30
2023-09-27T11:53:34.323Z,6.53
2023-09-27T11:56:02.799Z,5.32
2023-09-27T11:58:31.018Z,5.53
2023-09-27T12:01:00.575Z,4.87
2023-09-27T12:03:29.476Z,6.07
2023-09-27T12:05:58.146Z,5.70
2023-09-27T12:08:26.498Z,5.65
2023-09-27T12:10:54.711Z,4.93
2023-09-27T12:13:23.599Z,5.70
2023-09-27T12:15:52.411Z,5.07
2023-09-27T12:18:22.047Z,5.25
2023-09-27T12:20:51.396Z,5.43
2023-09-27T12:23:21.200Z,5.97
2023-09-27T12:25:49.423Z,5.65
2023-09-27T12:28:18.249Z,5.25
2023-09-27T12:30:46.483Z,6.00
2023-09-27T12:33:15.439Z,5.07
2023-09-27T12:35:47.923Z,5.63
2023-09-27T12:38:16.332Z,5.75
2023-09-27T12:40:44.501Z,5.15
2023-09-27T12:43:12.708Z,5.85
2023-09-27T12:45:41.223Z,5.80
2023-09-27T12:48:10.127Z,5.82
2023-09-27T12:50:42.425Z,5.68
2023-09-27T12:53:12.188Z,5.45
2023-09-27T12:55:43.372Z,5.75
2023-09-27T12:58:12.471Z,5.70
2023-09-27T13:00:41.097Z,6.15
2023-09-27T13:03:09.570Z,6.25
2023-09-27T13:05:38.276Z,6.13
2023-09-27T13:08:07.235Z,5.72
2023-09-27T13:10:38.282Z,6.20
2023-09-27T13:13:06.573Z,5.93
2023-09-27T13:15:34.809Z,5.85
2023-09-27T13:18:03.436Z,5.60
2023-09-27T13:20:32.892Z,6.10
2023-09-27T13:23:01.075Z,5.55
2023-09-27T13:25:29.282Z,5.45
2023-09-27T13:27:59.202Z,5.55
2023-09-27T13:30:35.340Z,5.82
2023-09-27T13:33:05.552Z,5.80
2023-09-27T13:35:36.653Z,5.88
2023-09-27T13:38:07.280Z,5.53
2023-09-27T13:40:35.863Z,6.27
2023-09-27T13:43:05.891Z,7.00
2023-09-27T13:45:34.284Z,5.90
2023-09-27T13:48:02.827Z,5.38
2023-09-27T13:50:33.575Z,6.30
2023-09-27T13:53:02.736Z,4.95
2023-09-27T13:55:31.314Z,5.90
2023-09-27T13:57:59.616Z,6.18
2023-09-27T14:00:29.367Z,4.85
2023-09-27T14:02:58.464Z,5.88
2023-09-27T14:05:26.926Z,6.07
2023-09-27T14:07:55.430Z,5.93
2023-09-27T14:10:24.973Z,6.90
2023-09-27T14:12:53.661Z,6.30
2023-09-27T14:15:22.814Z,5.85
2023-09-27T14:17:52.700Z,6.45
2023-09-27T14:20:22.489Z,5.95
2023-09-27T14:22:51.024Z,6.53
2023-09-27T14:25:21.126Z,6.53
2023-09-27T14:27:49.455Z,7.18
2023-09-27T14:30:17.633Z,6.90
2023-09-27T14:32:46.181Z,6.03
2023-09-27T14:35:15.932Z,6.20
2023-09-27T14:37:44.318Z,7.05
2023-09-27T14:40:13.855Z,6.13
2023-09-27T14:42:43.621Z,6.38
2023-09-27T14:45:28.463Z,6.57
2023-09-27T14:48:00.313Z,6.03
2023-09-27T14:50:30.448Z,6.03
2023-09-27T14:52:58.740Z,6.85
2023-09-27T14:55:27.288Z,6.90
2023-09-27T14:57:55.883Z,6.38
2023-09-27T15:00:24.457Z,6.60
2023-09-27T15:02:52.869Z,6.50
2023-09-27T15:05:21.634Z,5.83
2023-09-27T15:07:51.458Z,6.60
2023-09-27T15:10:19.711Z,6.47
2023-09-27T15:12:48.598Z,6.90
2023-09-27T15:15:16.804Z,6.00
2023-09-27T15:17:46.170Z,5.82
2023-09-27T15:20:15.834Z,6.32
2023-09-27T15:22:44.175Z,7.20
2023-09-27T15:25:13.778Z,5.40
2023-09-27T15:27:41.996Z,6.75
2023-09-27T15:30:12.238Z,6.75
2023-09-27T15:32:41.174Z,6.10
2023-09-27T15:35:10.200Z,7.03
2023-09-27T15:37:38.493Z,6.38
2023-09-27T15:40:07.642Z,5.97
2023-09-27T15:42:37.157Z,6.43
2023-09-27T15:45:10.720Z,7.18
2023-09-27T15:47:39.101Z,6.70
2023-09-27T15:50:10.174Z,5.82
2023-09-27T15:52:38.763Z,6.10
2023-09-27T15:55:09.287Z,5.97
2023-09-27T15:57:39.689Z,7.03
2023-09-27T16:00:12.556Z,6.25
2023-09-27T16:02:41.642Z,7.00
2023-09-27T16:05:12.089Z,6.72
2023-09-27T16:07:40.882Z,6.45
2023-09-27T16:10:11.042Z,6.72
2023-09-27T16:12:42.191Z,6.65
2023-09-27T16:15:11.779Z,7.70
2023-09-27T16:17:41.006Z,6.45
2023-09-27T16:20:10.335Z,7.18
2023-09-27T16:22:38.465Z,7.88
2023-09-27T16:25:08.345Z,7.38
2023-09-27T16:27:36.588Z,7.63
2023-09-27T16:30:08.634Z,7.07
2023-09-27T16:32:37.542Z,7.15
2023-09-27T16:35:06.127Z,8.65
2023-09-27T16:37:34.998Z,7.50
2023-09-27T16:40:04.428Z,7.18
2023-09-27T16:42:33.000Z,6.18
2023-09-27T16:45:03.790Z,7.28
2023-09-27T16:47:34.557Z,7.82
2023-09-27T16:50:03.004Z,7.03
2023-09-27T16:52:32.433Z,8.25
2023-09-27T16:55:01.818Z,6.70
2023-09-27T16:57:30.290Z,7.70
2023-09-27T16:59:58.620Z,7.25
2023-09-27T17:02:26.757Z,7.60
2023-09-27T17:04:56.390Z,7.25
2023-09-27T17:07:24.585Z,7.97
2023-09-27T17:09:52.801Z,7.55
2023-09-27T17:12:21.156Z,10.60
2023-09-27T17:14:49.397Z,12.60
2023-09-27T17:17:17.509Z,10.27
2023-09-27T17:19:47.407Z,12.20
2023-09-27T17:22:17.340Z,8.80
2023-09-27T17:24:46.890Z,8.00
2023-09-27T17:27:16.300Z,8.48
2023-09-27T17:29:44.606Z,7.55
2023-09-27T17:32:13.315Z,8.10
2023-09-27T17:34:41.608Z,9.38
2023-09-27T17:37:09.854Z,7.50
2023-09-27T17:39:39.780Z,10.50
2023-09-27T17:42:07.988Z,8.43
2023-09-27T17:44:38.484Z,9.25
2023-09-27T17:47:06.855Z,9.15
2023-09-27T17:49:35.224Z,8.23
2023-09-27T17:52:03.598Z,9.60
2023-09-27T17:54:31.770Z,9.77
2023-09-27T17:57:01.912Z,9.25
2023-09-27T17:59:30.263Z,10.15
2023-09-27T18:01:58.622Z,9.60
2023-09-27T18:04:29.668Z,9.20
2023-09-27T18:06:57.918Z,10.10
2023-09-27T18:09:26.045Z,9.65
2023-09-27T18:11:54.547Z,9.05
2023-09-27T18:14:25.214Z,10.57
2023-09-27T18:16:53.562Z,10.25
2023-09-27T18:19:21.799Z,8.35
2023-09-27T18:21:50.141Z,9.20
2023-09-27T18:24:18.412Z,9.10
2023-09-27T18:26:46.833Z,8.52
2023-09-27T18:29:15.494Z,10.27
2023-09-27T18:31:45.210Z,11.50
2023-09-27T18:34:15.009Z,10.55
2023-09-27T18:36:43.720Z,11.10
2023-09-27T18:39:11.891Z,10.65
2023-09-27T18:41:40.181Z,11.85
2023-09-27T18:44:08.669Z,11.57
2023-09-27T18:46:37.343Z,9.75
2023-09-27T18:49:07.087Z,10.10
2023-09-27T18:51:35.413Z,9.52
2023-09-27T18:54:03.732Z,9.73
2023-09-27T18:56:32.044Z,9.20
2023-09-27T18:59:02.125Z,10.43
2023-09-27T19:01:30.894Z,10.40
2023-09-27T19:04:00.163Z,10.55
2023-09-27T19:06:31.680Z,9.27
2023-09-27T19:09:00.164Z,9.25
2023-09-27T19:11:31.217Z,10.60
2023-09-27T19:13:59.579Z,10.25
2023-09-27T19:16:31.457Z,9.80
2023-09-27T19:18:59.893Z,10.52
2023-09-27T19:21:27.996Z,10.20
2023-09-27T19:23:57.585Z,8.88
2023-09-27T19:26:25.881Z,9.82
2023-09-27T19:28:54.981Z,10.57
2023-09-27T19:31:24.660Z,10.63
2023-09-27T19:33:53.091Z,10.05
2023-09-27T19:36:21.734Z,10.15
2023-09-27T19:38:50.521Z,10.07
2023-09-27T19:41:21.829Z,10.43
2023-09-27T19:43:50.012Z,9.70
2023-09-27T19:46:21.936Z,10.43
2023-09-27T19:48:50.100Z,10.80
2023-09-27T19:51:22.421Z,9.40
2023-09-27T19:53:51.093Z,10.18
2023-09-27T19:56:21.330Z,11.85
2023-09-27T19:58:50.439Z,10.50
2023-09-27T20:01:28.208Z,10.15
2023-09-27T20:03:57.382Z,10.40
2023-09-27T20:06:26.352Z,10.05
2023-09-27T20:08:54.831Z,9.50
2023-09-27T20:11:24.802Z,9.00
2023-09-27T20:13:53.342Z,11.30
2023-09-27T20:16:21.776Z,8.75
2023-09-27T20:18:50.269Z,9.90
2023-09-27T20:21:18.468Z,10.05
2023-09-27T20:23:46.623Z,9.82
2023-09-27T20:26:15.333Z,10.10
2023-09-27T20:28:45.201Z,10.55
2023-09-27T20:31:13.422Z,11.10
2023-09-27T20:33:41.924Z,10.00
2023-09-27T20:36:13.294Z,11.55
2023-09-27T20:38:41.465Z,10.70
2023-09-27T20:41:09.653Z,10.93
2023-09-27T20:43:37.943Z,10.32
2023-09-27T20:46:14.665Z,10.60
2023-09-27T20:48:43.376Z,10.00
2023-09-27T20:51:12.287Z,10.15
2023-09-27T20:53:40.527Z,9.90
2023-09-27T20:56:10.392Z,10.75
2023-09-27T20:58:41.985Z,9.80
2023-09-27T21:01:28.595Z,11.35
2023-09-27T21:04:00.201Z,10.65
2023-09-27T21:06:29.808Z,9.32
2023-09-27T21:08:59.054Z,9.45
2023-09-27T21:11:27.229Z,9.73
2023-09-27T21:13:56.574Z,8.95
2023-09-27T21:16:27.106Z,11.30
2023-09-27T21:18:56.521Z,9.57
2023-09-27T21:21:25.644Z,9.13
2023-09-27T21:23:54.250Z,8.73
2023-09-27T21:26:24.929Z,6.55
2023-09-27T21:28:54.015Z,6.25
2023-09-27T21:31:22.381Z,6.10
2023-09-27T21:33:52.408Z,6.07
2023-09-27T21:36:20.711Z,6.30
2023-09-27T21:38:48.961Z,5.97
2023-09-27T21:41:19.896Z,5.70
2023-09-27T21:43:49.369Z,5.68
2023-09-27T21:46:19.003Z,6.28
2023-09-27T21:48:49.139Z,6.10
2023-09-27T21:51:19.048Z,5.50
2023-09-27T21:53:47.373Z,5.47
2023-09-27T21:56:16.085Z,5.80
2023-09-27T21:58:44.509Z,6.40
2023-09-27T22:01:13.164Z,5.43
2023-09-27T22:03:42.330Z,5.43
2023-09-27T22:06:11.758Z,5.65
2023-09-27T22:08:49.385Z,5.60
2023-09-27T22:11:18.211Z,5.57
2023-09-27T22:13:49.035Z,6.57
2023-09-27T22:16:17.735Z,4.90
2023-09-27T22:18:50.115Z,6.38
2023-09-27T22:21:27.734Z,5.85
2023-09-27T22:23:59.680Z,5.00
2023-09-27T22:26:28.171Z,5.65
2023-09-27T22:28:57.730Z,5.55
2023-09-27T22:31:32.228Z,6.88
2023-09-27T22:34:11.707Z,6.65
2023-09-27T22:36:43.412Z,6.43
2023-09-27T22:39:16.919Z,5.47
2023-09-27T22:41:46.907Z,6.47
2023-09-27T22:44:21.725Z,6.53
2023-09-27T22:46:52.653Z,7.20
2023-09-27T22:49:22.498Z,5.32
2023-09-27T22:51:51.485Z,6.05
2023-09-27T22:54:22.852Z,5.07
2023-09-27T22:56:53.453Z,6.80
2023-09-27T22:59:22.571Z,5.32
2023-09-27T23:01:56.409Z,5.75
2023-09-27T23:04:25.130Z,5.90
2023-09-27T23:07:02.468Z,6.38
2023-09-27T23:09:38.617Z,4.57
2023-09-27T23:12:20.294Z,5.78
2023-09-27T23:18:27.602Z,5.45
2023-09-27T23:21:25.141Z,5.55
2023-09-27T23:24:36.020Z,5.47
2023-09-27T23:27:06.239Z,5.80
2023-09-27T23:29:36.644Z,5.60
2023-09-27T23:32:15.464Z,5.45
2023-09-27T23:34:42.779Z,6.07
2023-09-27T23:37:13.683Z,6.25
2023-09-27T23:39:44.633Z,6.30
2023-09-27T23:42:26.646Z,6.05
2023-09-27T23:44:56.753Z,5.95
2023-09-27T23:47:25.880Z,6.28
2023-09-27T23:49:58.014Z,5.20
2023-09-27T23:52:29.376Z,6.70
2023-09-27T23:55:03.124Z,6.25
2023-09-27T23:57:33.613Z,6.22
